Time;durP1;ratioP1;P1;durP2;ratioP2;P2;SDS_P1;SDS_P2;PMS_P1;PMS_P2;Temp;Humidity;BMP_temperature;BMP_pressure;BME280_temperature;BME280_humidity;BME280_pressure;Samples;Min_cycle;Max_cycle;Signal;HPM_P1;HPM_P2
2022/06/02 00:02:12;;;;;;;2.10;0.90;;;;;;;13.19;56.75;100562.44;6130378;23;20014;-74
2022/06/02 00:04:40;;;;;;;3.42;0.90;;;;;;;13.16;56.67;100555.53;6129911;23;20034;-74
2022/06/02 00:07:18;;;;;;;2.15;1.08;;;;;;;13.18;56.71;100552.44;6153293;23;20021;-74
2022/06/02 00:09:47;;;;;;;1.13;0.70;;;;;;;13.13;56.55;100550.56;6151200;23;20424;-74
2022/06/02 00:12:13;;;;;;;3.13;0.90;;;;;;;13.13;56.71;100550.56;6130424;23;20402;-74
2022/06/02 00:15:03;;;;;;;1.88;0.95;;;;;;;13.17;56.56;100551.59;6128699;23;20010;-74
2022/06/02 00:17:50;;;;;;;2.10;1.00;;;;;;;13.11;56.58;100552.84;6153051;23;20034;-74
2022/06/02 00:20:18;;;;;;;1.33;0.90;;;;;;;13.02;57.61;100554.69;6177739;23;20041;-74
2022/06/02 00:22:46;;;;;;;1.10;0.80;;;;;;;13.01;57.37;100553.06;6127605;23;20009;-74
2022/06/02 00:25:26;;;;;;;2.33;0.82;;;;;;;12.92;58.21;100558.50;6128600;23;20017;-74
2022/06/02 00:28:17;;;;;;;1.33;0.93;;;;;;;12.86;58.47;100558.91;6152938;23;20010;-74
2022/06/02 00:30:46;;;;;;;1.98;1.00;;;;;;;12.79;58.81;100550.13;6127059;23;20018;-74
2022/06/02 00:33:15;;;;;;;2.83;1.27;;;;;;;12.69;60.30;100543.63;6128751;23;20454;-74
2022/06/02 00:35:42;;;;;;;2.30;1.40;;;;;;;12.59;60.31;100549.41;6127955;23;20014;-74
2022/06/02 00:38:18;;;;;;;1.52;1.10;;;;;;;12.60;60.24;100544.66;6128191;23;20061;-74
2022/06/02 00:40:44;;;;;;;1.83;1.20;;;;;;;12.54;61.00;100543.91;6152380;23;20081;-74
2022/06/02 00:43:31;;;;;;;3.15;1.13;;;;;;;12.61;59.22;100558.25;6177762;23;20010;-74
2022/06/02 00:46:17;;;;;;;1.17;1.00;;;;;;;12.55;59.50;100559.50;6128364;23;20462;-74
2022/06/02 00:48:57;;;;;;;2.90;1.30;;;;;;;12.51;60.92;100556.50;6177540;23;20021;-74
2022/06/02 00:51:40;;;;;;;2.72;1.13;;;;;;;12.46;60.72;100561.34;6175253;23;20353;-74
2022/06/02 00:57:32;;;;;;;2.97;1.15;;;;;;;12.40;61.21;100559.78;6129877;23;20458;-74
2022/06/02 01:00:21;;;;;;;3.63;1.30;;;;;;;12.35;61.54;100559.84;6103740;23;20005;-74
2022/06/02 01:02:53;;;;;;;1.70;1.23;;;;;;;12.36;61.95;100556.75;6177724;23;20053;-74
2022/06/02 01:05:56;;;;;;;2.50;1.20;;;;;;;12.36;61.61;100555.94;6129304;23;20038;-74
2022/06/02 01:08:24;;;;;;;3.72;1.42;;;;;;;12.34;60.92;100555.41;6128092;23;20013;-74
2022/06/02 01:11:05;;;;;;;2.15;1.23;;;;;;;12.33;62.25;100556.53;6129619;23;20013;-74
2022/06/02 01:13:43;;;;;;;2.75;1.27;;;;;;;12.26;62.79;100554.16;6152759;23;20014;-74
2022/06/02 01:16:12;;;;;;;2.38;1.33;;;;;;;12.20;63.83;100561.78;6127995;23;20013;-75
2022/06/02 01:18:41;;;;;;;3.47;1.27;;;;;;;12.14;64.62;100557.41;6129663;23;20010;-74
2022/06/02 01:21:30;;;;;;;3.47;1.10;;;;;;;12.16;64.01;100571.84;6103341;23;20261;-75
2022/06/02 01:24:12;;;;;;;1.95;1.60;;;;;;;12.14;63.46;100565.75;6176464;23;20010;-75
2022/06/02 01:27:03;;;;;;;4.37;1.30;;;;;;;12.10;64.04;100561.94;6125245;23;20010;-75
2022/06/02 01:29:31;;;;;;;4.22;1.30;;;;;;;12.08;64.20;100562.22;6127797;23;20664;-75
2022/06/02 01:32:00;;;;;;;2.55;1.60;;;;;;;12.06;65.53;100569.22;6103558;23;20038;-74
2022/06/02 01:34:31;;;;;;;2.80;1.50;;;;;;;11.97;67.17;100555.16;6175815;23;20013;-74
2022/06/02 01:37:06;;;;;;;4.88;1.55;;;;;;;12.02;66.48;100551.47;6127945;23;20017;-74
2022/06/02 01:39:59;;;;;;;4.85;1.33;;;;;;;12.05;66.03;100545.31;6128049;23;20052;-74
2022/06/02 01:42:32;;;;;;;;;;;;;;;12.03;66.65;100550.34;6170750;23;20061;-75
2022/06/02 01:45:13;;;;;;;5.00;1.30;;;;;;;12.07;66.59;100551.41;6128260;23;19984;-74
2022/06/02 01:47:41;;;;;;;1.88;1.23;;;;;;;12.05;65.62;100548.91;6129486;23;20017;-74
2022/06/02 01:50:31;;;;;;;2.08;1.50;;;;;;;12.04;67.16;100540.88;6127011;23;20470;-75
2022/06/02 01:53:05;;;;;;;3.80;1.65;;;;;;;12.05;66.13;100536.97;6152553;23;20017;-74
2022/06/02 01:55:34;;;;;;;2.30;1.42;;;;;;;12.03;67.06;100537.25;6129588;23;20010;-74
2022/06/02 01:58:18;;;;;;;3.58;1.25;;;;;;;12.08;65.88;100534.38;6129562;23;20077;-75
2022/06/02 02:00:43;;;;;;;5.88;1.50;;;;;;;12.08;67.02;100544.69;6129541;23;20096;-75
2022/06/02 02:03:21;;;;;;;4.07;1.55;;;;;;;12.11;65.49;100546.88;6129406;23;20006;-75
2022/06/02 02:05:52;;;;;;;2.85;1.30;;;;;;;12.10;65.85;100544.41;6128933;23;20068;-74
2022/06/02 02:08:22;;;;;;;2.75;1.40;;;;;;;12.08;66.11;100542.72;6129348;23;20032;-75
2022/06/02 02:11:12;;;;;;;2.25;1.02;;;;;;;12.16;64.92;100544.00;6152369;23;20010;-74
2022/06/02 02:13:50;;;;;;;2.13;1.38;;;;;;;12.14;66.35;100551.00;6128164;23;20013;-75
2022/06/02 02:16:38;;;;;;;1.85;1.40;;;;;;;12.15;65.88;100558.25;6129502;23;20005;-74
2022/06/02 02:19:23;;;;;;;2.92;1.40;;;;;;;12.13;66.39;100554.94;6154235;23;20104;-74
2022/06/02 02:22:05;;;;;;;2.92;1.25;;;;;;;12.17;65.65;100530.91;6151944;23;20013;-74
2022/06/02 02:24:40;;;;;;;1.60;1.25;;;;;;;12.14;67.04;100545.44;6153566;23;20068;-75
2022/06/02 02:30:28;;;;;;;3.28;1.70;;;;;;;12.13;67.06;100524.31;6146214;23;20029;-74
2022/06/02 02:33:02;;;;;;;3.40;1.42;;;;;;;12.17;66.56;100517.00;6106079;23;20041;-74
2022/06/02 02:35:51;;;;;;;2.15;1.50;;;;;;;12.16;66.62;100518.94;6178510;23;20036;-74
2022/06/02 02:38:24;;;;;;;1.48;1.33;;;;;;;12.18;66.45;100513.91;6150426;23;20080;-74
2022/06/02 02:40:55;;;;;;;2.20;1.20;;;;;;;12.19;66.52;100511.94;6128525;23;20009;-74
2022/06/02 02:43:58;;;;;;;2.75;1.40;;;;;;;12.18;66.92;100519.47;6154094;23;20006;-74
2022/06/02 02:46:53;;;;;;;4.38;1.65;;;;;;;12.18;66.29;100518.66;6109384;23;20069;-74
2022/06/02 02:49:54;;;;;;;3.03;1.50;;;;;;;12.21;66.39;100518.06;6130313;23;20453;-74
2022/06/02 02:52:44;;;;;;;3.75;1.30;;;;;;;12.20;66.77;100524.72;6104648;23;20105;-75
2022/06/02 02:55:29;;;;;;;2.97;1.50;;;;;;;12.26;65.51;100521.56;6150142;23;20001;-75
2022/06/02 02:58:21;;;;;;;2.58;1.20;;;;;;;12.25;66.22;100514.31;6129544;23;20017;-75
2022/06/02 03:00:59;;;;;;;1.45;1.13;;;;;;;12.30;65.44;100521.78;6150348;23;20009;-75
2022/06/02 03:03:40;;;;;;;2.88;1.50;;;;;;;12.31;66.01;100515.06;6151921;23;20029;-75
2022/06/02 03:06:27;;;;;;;4.03;1.40;;;;;;;12.32;65.43;100518.69;6128382;23;20002;-75
2022/06/02 03:09:24;;;;;;;3.30;1.40;;;;;;;12.26;66.27;100513.22;6128909;23;20006;-75
2022/06/02 03:11:52;;;;;;;3.13;1.55;;;;;;;12.24;66.33;100509.91;6130850;23;20002;-75
2022/06/02 03:14:29;;;;;;;2.55;1.42;;;;;;;12.21;67.93;100502.16;6130791;23;20018;-74
2022/06/02 03:17:11;;;;;;;1.42;1.10;;;;;;;12.29;65.19;100501.47;6130796;23;20002;-74
2022/06/02 03:19:39;;;;;;;2.60;1.40;;;;;;;12.31;65.31;100506.72;6152793;23;20014;-75
2022/06/02 03:22:23;;;;;;;1.48;1.05;;;;;;;12.33;64.91;100509.19;6130745;23;20085;-75
2022/06/02 03:25:01;;;;;;;2.00;1.20;;;;;;;12.40;64.51;100512.44;6178480;23;20006;-75
2022/06/02 03:28:07;;;;;;;3.33;1.17;;;;;;;12.38;64.51;100509.13;6104279;23;20053;-75
2022/06/02 03:30:41;;;;;;;2.15;1.10;;;;;;;12.38;64.36;100512.72;6128049;23;20557;-75
2022/06/02 03:33:13;;;;;;;2.10;1.10;;;;;;;12.43;64.28;100520.16;6178552;23;20017;-75
2022/06/02 03:36:01;;;;;;;1.25;1.02;;;;;;;12.43;64.20;100509.03;6153121;23;20309;-75
2022/06/02 03:38:42;;;;;;;3.08;1.20;;;;;;;12.42;65.13;100513.75;6176120;23;20033;-75
2022/06/02 03:41:23;;;;;;;2.90;1.08;;;;;;;12.41;64.64;100511.28;6129196;23;20461;-75
2022/06/02 03:44:11;;;;;;;2.38;0.90;;;;;;;12.41;64.69;100517.69;6102916;23;20009;-75
2022/06/02 03:47:24;;;;;;;2.47;1.20;;;;;;;12.41;65.42;100508.50;6153441;23;20077;-75
2022/06/02 03:49:56;;;;;;;1.73;0.98;;;;;;;12.39;66.30;100502.41;6126724;23;20037;-75
2022/06/02 03:52:37;;;;;;;3.13;1.27;;;;;;;12.38;66.01;100514.69;6127751;23;20014;-75
2022/06/02 03:55:30;;;;;;;5.38;1.48;;;;;;;12.41;64.70;100517.69;6129068;23;20014;-75
2022/06/02 03:58:00;;;;;;;;;;;;;;;12.42;64.47;100524.06;6131029;23;20009;-75
2022/06/02 04:00:36;;;;;;;2.65;1.40;;;;;;;12.39;66.52;100519.13;6104549;23;19911;-75
2022/06/02 04:03:04;;;;;;;2.03;1.05;;;;;;;12.38;66.83;100511.91;6128142;23;20422;-75
2022/06/02 04:05:39;;;;;;;1.67;1.08;;;;;;;12.37;68.00;100526.94;6177390;23;20065;-75
2022/06/02 04:08:12;;;;;;;2.03;1.40;;;;;;;12.35;67.67;100527.25;6177088;23;20021;-75
2022/06/02 04:10:49;;;;;;;3.60;1.55;;;;;;;12.33;67.88;100526.72;6128687;23;20021;-74
2022/06/02 04:13:39;;;;;;;3.05;1.40;;;;;;;12.29;69.15;100522.91;6153304;23;20013;-75
2022/06/02 04:16:04;;;;;;;1.90;1.20;;;;;;;12.32;68.22;100536.22;6130238;23;20005;-75
2022/06/02 04:18:36;;;;;;;1.65;1.30;;;;;;;12.34;68.18;100533.13;6128709;23;20030;-75
2022/06/02 04:21:13;;;;;;;2.25;1.08;;;;;;;12.37;67.26;100527.78;6129655;23;20092;-75
2022/06/02 04:23:47;;;;;;;1.98;1.20;;;;;;;12.37;68.94;100526.94;6177495;23;20014;-75
2022/06/02 04:26:33;;;;;;;6.10;2.33;;;;;;;12.39;68.91;100527.47;6130133;23;20005;-75
2022/06/02 04:29:20;;;;;;;2.50;1.20;;;;;;;12.44;67.16;100528.19;6176776;23;20010;-75
2022/06/02 04:32:07;;;;;;;3.92;1.63;;;;;;;12.43;69.27;100526.56;6178426;23;20006;-75
2022/06/02 04:34:39;;;;;;;3.50;1.50;;;;;;;12.44;69.12;100521.81;6103447;23;20100;-75
2022/06/02 04:37:14;;;;;;;2.05;1.33;;;;;;;12.46;69.37;100516.78;6103327;23;20002;-75
2022/06/02 04:39:58;;;;;;;1.63;1.25;;;;;;;12.50;68.45;100517.78;6127506;23;20006;-75
2022/06/02 04:42:48;;;;;;;2.03;1.17;;;;;;;12.53;68.53;100519.97;6103878;23;20014;-75
2022/06/02 04:45:38;;;;;;;2.80;1.05;;;;;;;12.56;68.49;100521.31;6172069;23;20002;-75
2022/06/02 04:48:15;;;;;;;4.13;1.23;;;;;;;12.55;69.25;100514.91;6152213;23;20006;-75
2022/06/02 04:50:43;;;;;;;4.05;1.42;;;;;;;12.53;71.15;100515.22;6152619;23;20013;-75
2022/06/02 04:53:30;;;;;;;2.03;1.40;;;;;;;12.47;72.41;100515.63;6152769;23;20022;-75
2022/06/02 04:56:07;;;;;;;2.97;1.60;;;;;;;12.46;71.63;100514.81;6152508;23;20006;-74
2022/06/02 04:59:02;;;;;;;2.05;1.20;;;;;;;12.46;71.04;100513.97;6175284;23;20324;-74
2022/06/02 05:02:05;;;;;;;2.40;1.25;;;;;;;12.46;69.87;100509.22;6127205;23;20089;-74
2022/06/02 05:04:34;;;;;;;1.83;1.58;;;;;;;12.44;71.26;100516.25;6127851;23;20010;-74
2022/06/02 05:07:21;;;;;;;3.17;1.50;;;;;;;12.40;73.33;100520.78;6177322;23;20037;-74
2022/06/02 05:10:10;;;;;;;3.10;1.33;;;;;;;12.33;72.79;100512.81;6127890;23;20016;-75
2022/06/02 05:12:49;;;;;;;3.65;1.55;;;;;;;12.35;73.07;100518.91;6151960;23;20037;-75
2022/06/02 05:15:48;;;;;;;1.92;1.30;;;;;;;12.35;73.78;100507.78;6177195;23;20009;-75
2022/06/02 05:18:24;;;;;;;2.63;1.58;;;;;;;12.37;71.20;100504.66;6170030;23;20005;-74
2022/06/02 05:20:50;;;;;;;2.40;0.98;;;;;;;12.42;70.84;100507.34;6152364;23;20010;-74
2022/06/02 05:23:34;;;;;;;2.15;1.20;;;;;;;12.45;69.58;100512.31;6129533;23;20017;-75
2022/06/02 05:26:32;;;;;;;2.65;1.10;;;;;;;12.49;70.45;100518.94;6149884;23;20398;-74
2022/06/02 05:29:03;;;;;;;1.80;1.15;;;;;;;12.52;70.24;100509.97;6140478;23;20048;-75
2022/06/02 05:31:35;;;;;;;2.35;1.08;;;;;;;12.54;70.04;100513.28;6132743;23;20064;-75
2022/06/02 05:34:06;;;;;;;2.60;1.15;;;;;;;12.55;70.43;100512.13;6107827;23;20021;-75
2022/06/02 05:36:38;;;;;;;1.80;1.20;;;;;;;12.57;70.12;100509.88;6158788;23;20515;-75
2022/06/02 05:39:04;;;;;;;2.38;1.00;;;;;;;12.60;70.15;100512.03;6159062;23;20327;-75
2022/06/02 05:41:35;;;;;;;2.35;1.08;;;;;;;12.61;70.79;100510.06;6158920;23;20013;-75
2022/06/02 05:44:22;;;;;;;2.88;1.30;;;;;;;12.64;71.12;100515.03;6108403;23;20013;-75
2022/06/02 05:47:06;;;;;;;1.42;1.05;;;;;;;12.63;72.72;100505.84;6132740;23;20016;-75
2022/06/02 05:50:02;;;;;;;2.13;1.15;;;;;;;12.60;72.20;100517.63;6158635;23;20017;-75
2022/06/02 05:52:37;;;;;;;1.35;1.02;;;;;;;12.62;71.75;100509.78;6079543;23;20011;-75
2022/06/02 05:55:22;;;;;;;2.30;1.30;;;;;;;12.64;71.99;100518.63;6109231;23;20346;-75
2022/06/02 05:58:01;;;;;;;2.33;1.10;;;;;;;12.63;71.35;100508.63;6085317;23;20028;-75
2022/06/02 06:00:46;;;;;;;2.40;1.42;;;;;;;12.59;73.35;100506.75;6158986;23;20009;-75
2022/06/02 06:03:17;;;;;;;3.47;1.33;;;;;;;12.57;73.86;100506.28;6132768;23;20059;-75
2022/06/02 06:05:50;;;;;;;1.33;1.23;;;;;;;12.57;74.67;100501.50;6132280;23;20013;-75
2022/06/02 06:08:43;;;;;;;2.53;1.35;;;;;;;12.56;73.70;100499.84;6108949;23;20017;-75
2022/06/02 06:11:34;;;;;;;2.42;1.20;;;;;;;12.61;73.53;100499.75;6132755;23;20016;-72
2022/06/02 06:14:13;;;;;;;1.95;1.20;;;;;;;12.62;72.99;100503.34;6132816;23;20017;-71
2022/06/02 06:16:44;;;;;;;2.58;1.40;;;;;;;12.65;74.57;100506.38;6084349;23;20308;-72
2022/06/02 06:19:56;;;;;;;2.95;1.20;;;;;;;12.68;75.70;100513.28;6133433;23;20032;-69
2022/06/02 06:22:43;;;;;;;3.42;1.30;;;;;;;12.72;74.67;100505.97;6128874;23;20020;-75
2022/06/02 06:25:18;;;;;;;3.92;1.30;;;;;;;12.73;76.21;100514.03;6134112;23;20013;-75
2022/06/02 06:28:05;;;;;;;3.15;1.20;;;;;;;12.80;75.60;100510.81;6158665;23;20328;-75
2022/06/02 06:30:57;;;;;;;2.22;1.30;;;;;;;12.83;75.36;100510.19;6132913;23;20053;-75
2022/06/02 06:33:35;;;;;;;2.25;1.25;;;;;;;12.82;77.50;100510.53;6129700;23;20648;-75
2022/06/02 06:36:19;;;;;;;3.75;1.77;;;;;;;12.88;78.12;100509.28;6134231;23;20006;-75
2022/06/02 06:39:05;;;;;;;2.95;1.60;;;;;;;12.91;78.02;100503.06;6158821;23;20006;-75
2022/06/02 06:41:55;;;;;;;2.55;1.48;;;;;;;12.96;78.91;100509.38;6134988;23;20012;-75
2022/06/02 06:44:28;;;;;;;2.75;1.75;;;;;;;13.04;79.03;100507.84;6158752;23;20012;-71
2022/06/02 06:47:02;;;;;;;;;;;;;;;13.10;78.03;100517.72;6109222;23;20017;-75
2022/06/02 06:49:37;;;;;;;3.85;1.20;;;;;;;13.18;78.10;100514.22;6181554;23;20160;-75
2022/06/02 06:52:34;;;;;;;4.70;1.65;;;;;;;13.26;79.14;100507.13;6132881;23;20013;-73
2022/06/02 06:55:33;;;;;;;4.20;2.00;;;;;;;13.36;77.44;100506.06;6132429;23;20016;-73
2022/06/02 06:58:38;;;;;;;4.45;1.38;;;;;;;13.45;76.57;100501.38;6102742;23;20009;-73
2022/06/02 07:01:03;;;;;;;2.53;1.30;;;;;;;13.51;76.54;100500.16;6157525;23;20014;-74
2022/06/02 07:04:06;;;;;;;2.20;1.48;;;;;;;13.59;75.79;100499.38;6159760;23;20020;-74
2022/06/02 07:06:50;;;;;;;2.03;1.27;;;;;;;13.68;75.63;100501.41;6160109;23;20656;-74
2022/06/02 07:10:00;;;;;;;3.85;1.33;;;;;;;13.75;75.12;100499.03;6160334;23;20454;-73
2022/06/02 07:12:53;;;;;;;2.83;1.40;;;;;;;13.81;74.61;100497.75;6074751;23;20010;-74
2022/06/02 07:15:41;;;;;;;2.80;1.50;;;;;;;13.86;74.36;100497.63;6098660;23;20488;-74
2022/06/02 07:18:28;;;;;;;2.20;1.13;;;;;;;13.93;74.05;100505.56;6098561;23;20467;-73
2022/06/02 07:21:21;;;;;;;2.78;1.58;;;;;;;13.99;73.54;100516.31;6074189;23;20015;-74
2022/06/02 07:24:03;;;;;;;5.47;1.75;;;;;;;14.05;73.37;100515.03;6028079;23;20010;-74
2022/06/02 07:26:53;;;;;;;4.67;1.70;;;;;;;14.11;73.54;100523.28;6053342;23;20011;-74
2022/06/02 07:29:52;;;;;;;2.00;1.40;;;;;;;14.16;73.34;100515.59;6074269;23;20276;-74
2022/06/02 07:32:43;;;;;;;5.18;1.50;;;;;;;14.25;73.17;100522.06;6098567;23;20103;-74
2022/06/02 07:35:20;;;;;;;2.00;1.23;;;;;;;14.30;72.81;100524.72;6077469;23;20097;-74
2022/06/02 07:38:12;;;;;;;3.15;1.48;;;;;;;14.39;73.22;100523.97;6074538;23;20038;-74
2022/06/02 07:41:05;;;;;;;4.88;1.23;;;;;;;14.46;73.22;100524.34;6074450;23;20097;-74
2022/06/02 07:43:56;;;;;;;3.78;1.35;;;;;;;14.56;75.01;100531.66;6138718;23;20013;-74
2022/06/02 07:46:50;;;;;;;5.28;1.67;;;;;;;14.65;72.85;100536.13;6134326;23;20017;-74
2022/06/02 07:49:23;;;;;;;2.85;1.35;;;;;;;14.74;74.43;100537.00;6133412;23;20009;-74
2022/06/02 07:51:51;;;;;;;;;;;;;;;14.80;76.34;100546.09;6134740;23;20036;-74
2022/06/02 07:54:20;;;;;;;1.65;1.25;;;;;;;14.86;76.41;100541.19;6159921;23;20239;-75
2022/06/02 07:56:46;;;;;;;4.22;1.50;;;;;;;14.92;77.75;100539.88;6133905;23;20006;-74
2022/06/02 07:59:22;;;;;;;4.80;1.33;;;;;;;14.98;78.18;100539.41;6159935;23;20017;-75
2022/06/02 08:01:54;;;;;;;6.05;1.40;;;;;;;15.06;77.40;100534.19;6159951;23;20039;-74
2022/06/02 08:04:35;;;;;;;3.15;1.52;;;;;;;15.13;76.15;100534.56;6108941;23;20035;-74
2022/06/02 08:07:26;;;;;;;2.58;1.55;;;;;;;15.19;76.24;100536.84;6133417;23;20010;-75
2022/06/02 08:10:03;;;;;;;3.10;1.50;;;;;;;15.30;76.35;100531.78;6137348;23;20020;-74
2022/06/02 08:12:46;;;;;;;1.42;1.20;;;;;;;15.38;73.00;100528.19;6085305;23;20012;-74
2022/06/02 08:15:23;;;;;;;3.33;1.38;;;;;;;15.47;73.47;100527.38;6133131;23;20010;-74
2022/06/02 08:17:58;;;;;;;3.75;1.52;;;;;;;15.60;72.90;100530.03;6135659;23;20561;-74
2022/06/02 08:20:32;;;;;;;2.85;1.50;;;;;;;15.71;72.39;100533.38;6133427;23;20136;-75
2022/06/02 08:23:23;;;;;;;4.30;1.40;;;;;;;15.88;70.98;100517.72;6133404;23;20036;-74
2022/06/02 08:26:17;;;;;;;4.05;1.35;;;;;;;16.03;70.18;100525.63;6109157;23;20001;-74
2022/06/02 08:28:55;;;;;;;2.63;1.40;;;;;;;16.11;68.45;100518.38;6083405;23;20403;-75
2022/06/02 08:31:58;;;;;;;4.28;1.30;;;;;;;16.19;67.08;100517.56;6151537;23;20010;-74
2022/06/02 08:34:37;;;;;;;8.07;1.40;;;;;;;16.26;67.43;100517.84;6128326;23;20006;-75
2022/06/02 08:37:20;;;;;;;4.43;1.40;;;;;;;16.30;65.23;100519.66;6178190;23;20013;-74
2022/06/02 08:40:07;;;;;;;2.35;1.25;;;;;;;16.37;66.01;100519.16;6126993;23;20466;-74
2022/06/02 08:42:55;;;;;;;4.00;1.30;;;;;;;16.37;64.06;100523.94;6128482;23;20010;-73
2022/06/02 08:45:38;;;;;;;3.45;1.30;;;;;;;16.44;63.61;100519.47;6128692;23;20064;-73
2022/06/02 08:48:24;;;;;;;3.13;1.10;;;;;;;16.42;63.51;100513.38;6101736;23;20052;-73
2022/06/02 08:51:07;;;;;;;3.40;1.35;;;;;;;16.50;64.94;100517.31;6152679;23;20045;-74
2022/06/02 08:54:07;;;;;;;4.60;1.45;;;;;;;16.55;65.03;100508.72;6128168;23;20013;-74
2022/06/02 08:56:48;;;;;;;2.05;1.23;;;;;;;16.66;64.75;100509.16;6128172;23;20093;-74
2022/06/02 08:59:38;;;;;;;3.42;1.63;;;;;;;16.80;65.61;100504.22;6153052;23;20010;-74
2022/06/02 09:02:42;;;;;;;2.28;1.10;;;;;;;17.02;65.27;100511.56;6152838;23;20497;-74
2022/06/02 09:05:16;;;;;;;1.98;1.20;;;;;;;17.28;65.59;100508.59;6129497;23;20355;-73
2022/06/02 09:08:00;;;;;;;2.53;0.95;;;;;;;17.53;65.12;100503.16;6128441;23;20009;-74
2022/06/02 09:10:34;;;;;;;2.63;1.60;;;;;;;17.86;65.00;100494.84;6129673;23;20011;-74
2022/06/02 09:13:21;;;;;;;2.75;1.42;;;;;;;18.13;61.38;100501.03;6129807;23;20014;-73
2022/06/02 09:16:06;;;;;;;3.63;1.08;;;;;;;18.48;60.16;100493.88;6128078;23;20470;-74
2022/06/02 09:18:40;;;;;;;4.22;1.10;;;;;;;18.81;59.43;100495.84;6127275;23;20013;-74
2022/06/02 09:21:32;;;;;;;2.75;1.10;;;;;;;19.16;59.49;100489.75;6103509;23;20010;-73
2022/06/02 09:24:15;;;;;;;4.43;1.20;;;;;;;19.53;57.63;100498.13;6127939;23;20013;-73
2022/06/02 09:26:51;;;;;;;2.58;1.23;;;;;;;19.84;55.16;100491.88;6103646;23;20010;-73
2022/06/02 09:29:21;;;;;;;1.92;1.17;;;;;;;20.12;54.13;100491.91;6144981;23;20037;-74
2022/06/02 09:32:14;;;;;;;2.63;0.80;;;;;;;20.42;52.64;100495.16;6133062;23;20006;-74
2022/06/02 09:35:08;;;;;;;6.30;1.00;;;;;;;20.80;51.71;100481.66;6132695;23;20092;-74
2022/06/02 09:37:33;;;;;;;3.85;1.10;;;;;;;21.09;50.50;100486.84;6108814;23;20442;-74
2022/06/02 09:40:17;;;;;;;2.97;0.90;;;;;;;21.33;50.30;100482.13;6133053;23;20013;-74
2022/06/02 09:43:04;;;;;;;4.38;1.10;;;;;;;21.64;49.31;100481.25;6132947;23;20005;-74
2022/06/02 09:45:44;;;;;;;2.58;1.00;;;;;;;21.93;47.47;100477.03;6133226;23;20071;-73
2022/06/02 09:48:52;;;;;;;2.85;1.10;;;;;;;22.25;48.03;100471.22;6108308;23;20096;-73
2022/06/02 09:51:35;;;;;;;3.17;1.00;;;;;;;22.44;47.38;100476.03;6072892;23;20018;-73
2022/06/02 09:54:16;;;;;;;;;;;;;;;22.71;47.42;100468.47;6050013;23;20489;-73
2022/06/02 09:57:03;;;;;;;2.60;1.00;;;;;;;22.90;46.12;100473.19;6099731;23;19905;-73
2022/06/02 09:59:28;;;;;;;1.92;0.90;;;;;;;23.17;45.49;100471.25;6133013;23;20010;-72
2022/06/02 10:02:00;;;;;;;2.97;1.08;;;;;;;23.37;45.25;100469.97;6132088;23;20057;-72
2022/06/02 10:04:53;;;;;;;4.00;1.30;;;;;;;23.58;44.41;100471.47;6107944;23;20037;-72
2022/06/02 10:07:25;;;;;;;2.88;1.00;;;;;;;23.70;43.61;100468.38;6136072;23;20017;-72
2022/06/02 10:10:31;;;;;;;2.20;0.90;;;;;;;23.91;43.95;100461.41;6158712;23;20037;-72
2022/06/02 10:13:20;;;;;;;5.05;1.20;;;;;;;24.02;42.86;100456.66;6136266;23;20006;-72
2022/06/02 10:15:48;;;;;;;1.92;0.95;;;;;;;24.07;43.79;100468.50;6136892;23;20014;-72
2022/06/02 10:18:17;;;;;;;5.35;1.30;;;;;;;24.20;41.98;100459.69;6132692;23;20489;-72
2022/06/02 10:21:23;;;;;;;3.05;1.00;;;;;;;24.29;41.92;100461.03;6158588;23;20047;-72
2022/06/02 10:24:25;;;;;;;4.97;1.10;;;;;;;24.41;41.91;100461.97;6132883;23;20013;-73
2022/06/02 10:27:20;;;;;;;4.23;0.97;;;;;;;24.46;41.48;100461.63;6132733;23;20402;-73
2022/06/02 10:30:03;;;;;;;3.22;1.00;;;;;;;24.48;41.00;100453.53;6131931;23;20075;-73
2022/06/02 10:32:53;;;;;;;2.58;1.20;;;;;;;24.59;41.41;100447.97;6132829;23;20002;-73
2022/06/02 10:35:27;;;;;;;2.40;0.70;;;;;;;24.67;42.10;100449.66;6158175;23;20428;-73
2022/06/02 10:38:17;;;;;;;2.35;1.38;;;;;;;24.83;40.79;100446.56;6159389;23;20005;-73
2022/06/02 10:40:58;;;;;;;2.13;1.08;;;;;;;24.92;40.80;100442.16;6110911;23;20056;-73
2022/06/02 10:43:37;;;;;;;6.05;1.10;;;;;;;25.02;40.78;100431.28;6134194;23;20013;-73
2022/06/02 10:46:05;;;;;;;4.55;1.20;;;;;;;25.10;40.53;100433.78;6111311;23;20017;-73
2022/06/02 10:49:30;;;;;;;2.38;1.13;;;;;;;25.25;39.32;100434.72;6134300;23;20013;-73
2022/06/02 10:52:14;;;;;;;6.55;1.52;;;;;;;25.37;40.38;100428.69;6070130;23;20039;-73
2022/06/02 10:55:17;;;;;;;5.90;1.02;;;;;;;25.43;40.47;100434.81;6069748;23;20022;-73
2022/06/02 10:58:06;;;;;;;2.63;0.87;;;;;;;25.60;39.65;100430.44;6147329;23;20010;-73
2022/06/02 11:00:37;;;;;;;5.88;1.00;;;;;;;25.69;39.07;100419.53;6110105;23;20613;-73
2022/06/02 11:03:38;;;;;;;2.33;1.00;;;;;;;25.86;38.69;100429.38;6160802;23;20080;-72
2022/06/02 11:06:17;;;;;;;3.75;1.00;;;;;;;25.97;39.44;100418.88;6110037;23;20036;-73
2022/06/02 11:09:04;;;;;;;4.20;1.00;;;;;;;26.07;39.22;100420.09;6109885;23;20068;-73
2022/06/02 11:11:54;;;;;;;3.72;1.00;;;;;;;26.26;37.70;100427.47;6110003;23;20327;-73
2022/06/02 11:14:27;;;;;;;6.40;0.85;;;;;;;26.41;37.86;100423.44;6134539;23;20009;-73
2022/06/02 11:17:07;;;;;;;1.42;0.90;;;;;;;26.52;37.81;100414.91;6110165;23;20006;-72
2022/06/02 11:20:03;;;;;;;3.92;0.98;;;;;;;26.64;37.39;100414.53;6111898;23;20039;-73
2022/06/02 11:22:47;;;;;;;1.83;0.65;;;;;;;26.75;36.07;100414.53;6134214;23;20017;-73
2022/06/02 11:25:25;;;;;;;2.05;0.85;;;;;;;26.91;37.56;100414.09;6109972;23;20013;-73
2022/06/02 11:28:08;;;;;;;2.58;0.90;;;;;;;27.03;37.06;100416.56;6134363;23;20016;-73
2022/06/02 11:30:58;;;;;;;2.03;0.70;;;;;;;27.07;35.21;100417.34;6134578;23;20155;-73
2022/06/02 11:33:59;;;;;;;1.70;0.95;;;;;;;27.05;35.85;100411.28;6134131;23;20016;-73
2022/06/02 11:36:52;;;;;;;2.95;0.80;;;;;;;27.09;35.97;100414.91;6111979;23;20111;-73
2022/06/02 11:39:43;;;;;;;5.18;0.90;;;;;;;27.00;35.45;100408.03;6160136;23;20420;-73
2022/06/02 11:42:31;;;;;;;2.00;0.98;;;;;;;27.05;35.41;100404.72;6135352;23;20013;-72
2022/06/02 11:45:15;;;;;;;1.77;0.70;;;;;;;27.18;36.37;100398.22;6138007;23;20012;-73
2022/06/02 11:47:51;;;;;;;4.13;0.90;;;;;;;27.21;35.23;100399.44;6133743;23;20017;-73
2022/06/02 11:50:35;;;;;;;1.65;0.57;;;;;;;27.16;35.05;100395.00;6132859;23;20020;-73
2022/06/02 11:53:24;;;;;;;2.13;0.90;;;;;;;27.34;34.43;100392.09;6160017;23;20041;-72
2022/06/02 11:56:28;;;;;;;2.15;0.63;;;;;;;27.29;33.32;100395.34;6110895;23;20036;-73
2022/06/02 11:59:11;;;;;;;3.58;0.80;;;;;;;27.42;34.86;100383.53;6109377;23;20032;-73
2022/06/02 12:01:43;;;;;;;3.35;0.80;;;;;;;27.57;34.88;100387.94;6134440;23;20015;-73
2022/06/02 12:04:37;;;;;;;2.03;0.80;;;;;;;27.65;34.94;100386.66;6133390;23;20017;-73
2022/06/02 12:07:29;;;;;;;3.63;0.80;;;;;;;27.85;34.16;100384.97;6160332;23;20002;-73
2022/06/02 12:10:33;;;;;;;4.78;0.65;;;;;;;28.00;34.08;100379.19;6085268;23;20068;-73
2022/06/02 12:13:07;;;;;;;2.03;0.75;;;;;;;28.26;32.65;100380.66;6068755;23;20094;-73
2022/06/02 12:16:03;;;;;;;2.72;0.80;;;;;;;28.23;33.38;100379.44;6076356;23;20002;-73
2022/06/02 12:18:38;;;;;;;2.85;0.80;;;;;;;28.26;34.06;100372.09;6133586;23;20010;-73
2022/06/02 12:21:33;;;;;;;2.17;0.70;;;;;;;28.12;34.15;100373.00;6110119;23;20009;-73
2022/06/02 12:24:04;;;;;;;4.15;0.77;;;;;;;27.70;33.35;100376.88;6140125;23;20013;-73
2022/06/02 12:26:59;;;;;;;3.85;0.75;;;;;;;27.68;34.27;100371.56;6085189;23;20076;-73
2022/06/02 12:29:51;;;;;;;2.67;0.70;;;;;;;27.55;35.26;100374.09;6136489;23;20028;-73
2022/06/02 12:32:16;;;;;;;1.50;0.80;;;;;;;27.38;35.60;100375.75;6156581;23;20088;-73
2022/06/02 12:35:04;;;;;;;2.90;0.73;;;;;;;27.32;35.96;100382.31;6132937;23;20005;-73
2022/06/02 12:37:51;;;;;;;2.58;0.90;;;;;;;27.25;36.73;100383.16;6133517;23;20439;-73
2022/06/02 12:40:35;;;;;;;6.70;0.82;;;;;;;27.22;36.81;100388.84;6108942;23;20012;-73
2022/06/02 12:43:04;;;;;;;3.55;1.08;;;;;;;27.24;37.59;100390.06;6108782;23;20016;-73
2022/06/02 12:45:53;;;;;;;1.88;0.90;;;;;;;27.22;37.72;100386.84;6159535;23;20016;-73